createdAt,value
2023-05-14T00:00:28.785Z,2.10
2023-05-14T00:01:28.800Z,2.00
2023-05-14T00:02:28.856Z,1.90
2023-05-14T00:03:28.838Z,2.00
2023-05-14T00:04:28.819Z,2.40
2023-05-14T00:05:28.784Z,2.10
2023-05-14T00:06:28.767Z,2.10
2023-05-14T00:07:28.754Z,2.00
2023-05-14T00:08:28.721Z,2.20
2023-05-14T00:09:28.721Z,2.00
2023-05-14T00:10:28.763Z,1.90
2023-05-14T00:11:28.743Z,2.00
2023-05-14T00:12:28.785Z,2.20
2023-05-14T00:13:28.716Z,2.40
2023-05-14T00:14:28.700Z,2.10
2023-05-14T00:15:28.722Z,2.30
2023-05-14T00:16:28.759Z,2.20
2023-05-14T00:17:28.700Z,2.10
2023-05-14T00:18:28.690Z,2.30
2023-05-14T00:19:28.665Z,2.10
2023-05-14T00:20:28.710Z,2.10
2023-05-14T00:21:28.651Z,2.30
2023-05-14T00:22:28.650Z,2.20
2023-05-14T00:23:28.628Z,2.50
2023-05-14T00:24:28.688Z,2.00
2023-05-14T00:25:28.655Z,2.20
2023-05-14T00:26:28.617Z,2.50
2023-05-14T00:27:28.621Z,2.30
2023-05-14T00:28:28.705Z,2.40
2023-05-14T00:29:28.717Z,2.00
2023-05-14T00:30:28.615Z,2.30
2023-05-14T00:31:28.642Z,2.30
2023-05-14T00:32:28.605Z,2.20
2023-05-14T00:33:28.571Z,2.10
2023-05-14T00:34:28.662Z,2.40
2023-05-14T00:35:28.559Z,2.60
2023-05-14T00:36:28.631Z,2.40
2023-05-14T00:37:28.549Z,2.50
2023-05-14T00:38:28.548Z,2.70
2023-05-14T00:39:28.563Z,2.70
2023-05-14T00:40:28.518Z,2.60
2023-05-14T00:41:28.522Z,2.50
2023-05-14T00:42:28.511Z,2.50
2023-05-14T00:43:28.522Z,2.70
2023-05-14T00:44:28.612Z,3.10
2023-05-14T00:45:28.532Z,2.60
2023-05-14T00:46:28.501Z,2.40
2023-05-14T00:47:28.504Z,2.80
2023-05-14T00:48:28.531Z,2.40
2023-05-14T00:49:28.468Z,2.40
2023-05-14T00:50:28.470Z,2.40
2023-05-14T00:51:28.499Z,2.30
2023-05-14T00:52:28.452Z,2.50
2023-05-14T00:53:28.464Z,2.60
2023-05-14T00:54:28.453Z,2.70
2023-05-14T00:55:28.423Z,2.80
2023-05-14T00:56:28.518Z,3.10
2023-05-14T00:57:28.459Z,2.70
2023-05-14T00:58:28.403Z,3.80
2023-05-14T00:59:28.409Z,2.90
2023-05-14T01:00:28.392Z,3.30
2023-05-14T01:01:28.393Z,3.10
2023-05-14T01:02:28.452Z,2.80
2023-05-14T01:03:28.432Z,2.70
2023-05-14T01:04:28.356Z,3.00
2023-05-14T01:05:28.362Z,2.70
2023-05-14T01:06:28.376Z,3.30
2023-05-14T01:07:28.349Z,3.30
2023-05-14T01:08:28.370Z,3.40
2023-05-14T01:09:28.341Z,3.20
2023-05-14T01:10:28.309Z,4.20
2023-05-14T01:11:28.321Z,3.50
2023-05-14T01:12:28.346Z,3.00
2023-05-14T01:13:28.296Z,3.40
2023-05-14T01:14:29.289Z,3.90
2023-05-14T01:15:28.301Z,3.90
2023-05-14T01:16:28.352Z,4.30
2023-05-14T01:17:28.311Z,3.70
2023-05-14T01:18:28.311Z,2.90
2023-05-14T01:19:28.264Z,3.40
2023-05-14T01:20:28.253Z,4.20
2023-05-14T01:21:28.271Z,3.70
2023-05-14T01:22:28.234Z,3.90
2023-05-14T01:23:28.232Z,3.60
2023-05-14T01:24:28.233Z,4.20
2023-05-14T01:25:28.243Z,3.80
2023-05-14T01:26:28.230Z,4.10
2023-05-14T01:27:28.209Z,4.70
2023-05-14T01:28:28.200Z,4.40
2023-05-14T01:29:28.193Z,4.20
2023-05-14T01:30:28.211Z,5.40
2023-05-14T01:31:28.195Z,5.90
2023-05-14T01:32:28.217Z,4.70
2023-05-14T01:33:28.176Z,5.70
2023-05-14T01:34:28.166Z,5.00
2023-05-14T01:35:28.171Z,5.50
2023-05-14T01:36:28.165Z,4.20
2023-05-14T01:37:28.142Z,4.80
2023-05-14T01:38:28.134Z,5.10
2023-05-14T01:39:28.170Z,4.70
2023-05-14T01:40:28.134Z,6.20
2023-05-14T01:41:28.114Z,6.10
2023-05-14T01:42:28.117Z,5.90
2023-05-14T01:43:28.142Z,5.90
2023-05-14T01:44:28.435Z,5.30
2023-05-14T01:45:28.148Z,5.10
2023-05-14T01:46:28.134Z,5.60
2023-05-14T01:47:28.108Z,5.30
2023-05-14T01:48:28.063Z,4.90
2023-05-14T01:49:28.092Z,4.60
2023-05-14T01:50:28.047Z,4.00
2023-05-14T01:51:28.042Z,4.80
2023-05-14T01:52:28.101Z,4.70
2023-05-14T01:53:28.328Z,4.30
2023-05-14T01:54:28.071Z,3.40
2023-05-14T01:55:28.187Z,4.00
2023-05-14T01:56:28.041Z,5.20
2023-05-14T01:57:28.017Z,3.70
2023-05-14T01:58:28.024Z,4.00
2023-05-14T01:59:27.993Z,3.80
2023-05-14T02:00:27.997Z,4.50
2023-05-14T02:01:28.011Z,4.60
2023-05-14T02:02:27.991Z,4.30
2023-05-14T02:03:27.989Z,5.50
2023-05-14T02:04:28.060Z,5.70
2023-05-14T02:05:27.964Z,5.70
2023-05-14T02:06:27.939Z,5.40
2023-05-14T02:07:27.957Z,6.60
2023-05-14T02:08:27.959Z,4.00
2023-05-14T02:09:27.919Z,3.90
2023-05-14T02:10:27.914Z,3.30
2023-05-14T02:11:27.941Z,3.30
2023-05-14T02:12:27.930Z,3.30
2023-05-14T02:13:27.909Z,3.30
2023-05-14T02:14:27.933Z,4.80
2023-05-14T02:15:27.910Z,3.70
2023-05-14T02:16:28.005Z,4.00
2023-05-14T02:17:27.998Z,3.90
2023-05-14T02:18:27.896Z,3.60
2023-05-14T02:19:27.865Z,3.30
2023-05-14T02:20:27.856Z,4.00
2023-05-14T02:21:27.889Z,3.50
2023-05-14T02:22:27.838Z,4.00
2023-05-14T02:23:37.970Z,3.40
2023-05-14T02:24:29.819Z,2.50
2023-05-14T02:25:27.812Z,2.90
2023-05-14T02:26:27.923Z,4.50
2023-05-14T02:27:27.800Z,4.80
2023-05-14T02:28:27.791Z,4.10
2023-05-14T02:29:27.789Z,5.00
2023-05-14T02:30:27.804Z,4.90
2023-05-14T02:31:27.842Z,4.60
2023-05-14T02:32:27.889Z,5.10
2023-05-14T02:33:27.845Z,5.50
2023-05-14T02:34:27.763Z,4.10
2023-05-14T02:35:28.084Z,4.20
2023-05-14T02:36:28.106Z,4.90
2023-05-14T02:37:27.735Z,5.30
2023-05-14T02:38:27.725Z,5.10
2023-05-14T02:39:27.743Z,4.40
2023-05-14T02:40:27.728Z,4.80
2023-05-14T02:41:27.707Z,4.90
2023-05-14T02:42:27.720Z,4.50
2023-05-14T02:43:27.699Z,4.50
2023-05-14T02:44:27.680Z,4.20
2023-05-14T02:45:27.729Z,4.70
2023-05-14T02:46:27.718Z,4.90
2023-05-14T02:47:27.738Z,4.20
2023-05-14T02:48:27.693Z,5.50
2023-05-14T02:49:27.673Z,5.70
2023-05-14T02:50:27.663Z,5.90
2023-05-14T02:51:27.656Z,5.20
2023-05-14T02:52:27.639Z,5.80
2023-05-14T02:53:27.638Z,6.30
2023-05-14T02:54:27.649Z,5.20
2023-05-14T02:55:27.630Z,5.40
2023-05-14T02:56:27.614Z,6.30
2023-05-14T02:57:27.613Z,6.60
2023-05-14T02:58:27.614Z,7.20
2023-05-14T02:59:27.606Z,6.70
2023-05-14T03:00:27.588Z,9.70
2023-05-14T03:01:27.617Z,6.60
2023-05-14T03:02:27.639Z,5.70
2023-05-14T03:03:27.689Z,5.10
2023-05-14T03:04:27.562Z,3.30
2023-05-14T03:05:27.544Z,3.10
2023-05-14T03:06:27.558Z,4.30
2023-05-14T03:07:27.561Z,3.60
2023-05-14T03:08:27.577Z,4.80
2023-05-14T03:09:27.560Z,3.50
2023-05-14T03:10:27.515Z,6.00
2023-05-14T03:11:27.518Z,5.20
2023-05-14T03:12:27.541Z,5.40
2023-05-14T03:13:27.533Z,3.60
2023-05-14T03:14:27.482Z,5.40
2023-05-14T03:15:27.497Z,4.70
2023-05-14T03:16:27.528Z,4.40
2023-05-14T03:17:27.522Z,4.60
2023-05-14T03:18:27.558Z,3.30
2023-05-14T03:19:27.455Z,3.60
2023-05-14T03:20:27.432Z,3.50
2023-05-14T03:21:27.452Z,4.20
2023-05-14T03:22:27.445Z,4.20
2023-05-14T03:23:27.411Z,5.50
2023-05-14T03:24:27.440Z,4.60
2023-05-14T03:25:27.396Z,6.30
2023-05-14T03:26:27.422Z,6.00
2023-05-14T03:27:27.435Z,6.00
2023-05-14T03:28:27.396Z,4.60
2023-05-14T03:29:27.395Z,6.60
2023-05-14T03:30:27.437Z,5.60
2023-05-14T03:31:27.445Z,6.20
2023-05-14T03:32:27.409Z,5.50
2023-05-14T03:33:27.365Z,6.10
2023-05-14T03:34:27.351Z,5.30
2023-05-14T03:35:27.335Z,5.20
2023-05-14T03:36:27.360Z,4.00
2023-05-14T03:37:27.319Z,4.30
2023-05-14T03:38:27.325Z,5.00
2023-05-14T03:39:27.323Z,3.50
2023-05-14T03:40:27.323Z,3.50
2023-05-14T03:41:27.342Z,3.20
2023-05-14T03:42:27.306Z,3.70
2023-05-14T03:43:27.277Z,3.80
2023-05-14T03:44:27.285Z,4.00
2023-05-14T03:45:27.300Z,2.70
2023-05-14T03:46:27.252Z,3.80
2023-05-14T03:47:27.308Z,3.40
2023-05-14T03:48:27.395Z,3.10
2023-05-14T03:49:27.253Z,3.70
2023-05-14T03:50:27.227Z,3.60
2023-05-14T03:51:27.270Z,3.50
2023-05-14T03:52:27.220Z,3.10
2023-05-14T03:53:27.223Z,3.70
2023-05-14T03:54:27.238Z,3.80
2023-05-14T03:55:27.214Z,3.70
2023-05-14T03:56:27.195Z,3.90
2023-05-14T03:57:27.222Z,3.60
2023-05-14T03:58:27.183Z,4.20
2023-05-14T03:59:27.195Z,3.50
2023-05-14T04:00:27.291Z,3.90
2023-05-14T04:01:27.160Z,3.90
2023-05-14T04:02:27.203Z,3.70
2023-05-14T04:03:27.253Z,3.30
2023-05-14T04:04:27.169Z,3.60
2023-05-14T04:05:27.125Z,3.30
2023-05-14T04:06:27.139Z,4.10
2023-05-14T04:07:27.129Z,3.50
2023-05-14T04:08:27.124Z,3.40
2023-05-14T04:09:27.148Z,3.60
2023-05-14T04:10:27.097Z,3.40
2023-05-14T04:11:27.100Z,3.10
2023-05-14T04:12:27.094Z,3.00
2023-05-14T04:13:27.103Z,3.80
2023-05-14T04:14:27.090Z,3.30
2023-05-14T04:15:27.083Z,3.30
2023-05-14T04:16:27.080Z,3.30
2023-05-14T04:17:27.118Z,3.00
2023-05-14T04:18:27.099Z,2.80
2023-05-14T04:19:27.034Z,2.60
2023-05-14T04:20:27.025Z,2.50
2023-05-14T04:21:27.035Z,2.40
2023-05-14T04:22:27.059Z,2.80
2023-05-14T04:23:27.006Z,3.10
2023-05-14T04:24:27.025Z,2.90
2023-05-14T04:25:27.262Z,3.10
2023-05-14T04:26:26.987Z,2.80
2023-05-14T04:27:27.002Z,3.00
2023-05-14T04:28:26.997Z,2.70
2023-05-14T04:29:26.999Z,2.90
2023-05-14T04:30:26.979Z,3.30
2023-05-14T04:31:26.973Z,3.90
2023-05-14T04:32:26.986Z,3.10
2023-05-14T04:33:26.955Z,3.30
2023-05-14T04:34:26.957Z,3.80
2023-05-14T04:35:26.925Z,3.20
2023-05-14T04:36:26.940Z,3.30
2023-05-14T04:37:26.927Z,3.20
2023-05-14T04:38:26.904Z,3.80
2023-05-14T04:39:26.922Z,3.60
2023-05-14T04:40:27.087Z,3.90
2023-05-14T04:41:26.900Z,3.60
2023-05-14T04:42:26.898Z,3.40
2023-05-14T04:43:26.945Z,3.20
2023-05-14T04:44:26.850Z,3.30
2023-05-14T04:45:26.883Z,3.10
2023-05-14T04:46:26.879Z,3.30
2023-05-14T04:47:26.886Z,3.60
2023-05-14T04:48:26.871Z,3.70
2023-05-14T04:49:26.847Z,2.90
2023-05-14T04:50:26.812Z,3.10
2023-05-14T04:51:27.556Z,3.30
2023-05-14T04:52:26.818Z,3.30
2023-05-14T04:53:26.805Z,3.50
2023-05-14T04:54:26.852Z,3.50
2023-05-14T04:55:26.779Z,3.20
2023-05-14T04:56:26.778Z,3.50
2023-05-14T04:57:26.771Z,3.60
2023-05-14T04:58:26.768Z,3.40
2023-05-14T04:59:26.782Z,2.90
2023-05-14T05:00:26.963Z,3.00
2023-05-14T05:01:26.775Z,3.00
2023-05-14T05:02:26.781Z,3.30
2023-05-14T05:03:26.797Z,3.30
2023-05-14T05:04:26.721Z,3.00
2023-05-14T05:05:27.717Z,2.80
2023-05-14T05:06:27.702Z,2.90
2023-05-14T05:07:26.716Z,2.90
2023-05-14T05:08:26.693Z,2.60
2023-05-14T05:09:26.707Z,3.00
2023-05-14T05:10:26.959Z,2.70
2023-05-14T05:11:26.674Z,3.00
2023-05-14T05:12:26.688Z,2.80
2023-05-14T05:13:26.670Z,2.50
2023-05-14T05:14:26.686Z,2.90
2023-05-14T05:15:26.723Z,2.60
2023-05-14T05:16:26.669Z,2.60
2023-05-14T05:17:26.647Z,2.70
2023-05-14T05:18:26.661Z,2.30
2023-05-14T05:19:39.490Z,2.30
2023-05-14T05:20:28.620Z,2.50
2023-05-14T05:21:26.620Z,2.40
2023-05-14T05:22:26.608Z,2.30
2023-05-14T05:23:26.632Z,2.50
2023-05-14T05:24:26.623Z,2.20
2023-05-14T05:25:26.798Z,2.30
2023-05-14T05:26:26.582Z,2.50
2023-05-14T05:27:26.636Z,2.40
2023-05-14T05:28:26.587Z,2.40
2023-05-14T05:29:26.576Z,2.50
2023-05-14T05:30:26.610Z,2.00
2023-05-14T05:31:26.688Z,2.20
2023-05-14T05:32:26.757Z,2.20
2023-05-14T05:33:26.549Z,2.00
2023-05-14T05:34:26.534Z,2.10
2023-05-14T05:35:26.521Z,2.00
2023-05-14T05:36:27.543Z,2.20
2023-05-14T05:37:26.681Z,2.30
2023-05-14T05:38:26.613Z,2.30
2023-05-14T05:39:26.574Z,2.20
2023-05-14T05:40:26.515Z,2.40
2023-05-14T05:41:26.632Z,2.50
2023-05-14T05:42:26.565Z,2.40
2023-05-14T05:43:26.530Z,2.30
2023-05-14T05:44:26.465Z,2.30
2023-05-14T05:45:27.191Z,2.40
2023-05-14T05:46:26.674Z,2.20
2023-05-14T05:47:27.562Z,2.50
2023-05-14T05:48:26.497Z,2.20
2023-05-14T05:49:26.618Z,2.30
2023-05-14T05:50:27.026Z,2.30
2023-05-14T05:51:26.637Z,2.00
2023-05-14T05:52:26.512Z,2.20
2023-05-14T05:53:26.421Z,2.80
2023-05-14T05:54:27.035Z,2.10
2023-05-14T05:55:27.115Z,2.40
2023-05-14T05:56:26.496Z,2.10
2023-05-14T05:57:26.461Z,2.20
2023-05-14T05:58:28.096Z,2.10
2023-05-14T05:59:27.114Z,2.00
2023-05-14T06:00:26.749Z,2.10
2023-05-14T06:01:26.470Z,2.10
2023-05-14T06:02:26.480Z,2.30
2023-05-14T06:03:26.411Z,2.20
2023-05-14T06:04:26.323Z,1.90
2023-05-14T06:05:26.427Z,1.90
2023-05-14T06:06:26.308Z,1.90
2023-05-14T06:07:26.298Z,1.90
2023-05-14T06:08:26.300Z,1.80
2023-05-14T06:09:26.281Z,2.10
2023-05-14T06:10:26.457Z,2.00
2023-05-14T06:11:26.261Z,2.00
2023-05-14T06:12:26.270Z,2.10
2023-05-14T06:13:26.255Z,2.00
2023-05-14T06:14:26.266Z,1.80
2023-05-14T06:15:26.275Z,1.90
2023-05-14T06:16:26.248Z,1.90
2023-05-14T06:17:26.235Z,2.10
2023-05-14T06:18:26.254Z,2.10
2023-05-14T06:19:27.037Z,2.00
2023-05-14T06:20:26.350Z,1.90
2023-05-14T06:21:26.198Z,2.00
2023-05-14T06:22:26.191Z,1.80
2023-05-14T06:23:26.177Z,1.90
2023-05-14T06:24:26.215Z,1.90
2023-05-14T06:25:26.220Z,2.00
2023-05-14T06:26:26.161Z,2.30
2023-05-14T06:27:26.166Z,1.80
2023-05-14T06:28:26.161Z,1.90
2023-05-14T06:29:26.161Z,1.90
2023-05-14T06:30:26.354Z,2.10
2023-05-14T06:31:26.156Z,2.00
2023-05-14T06:32:26.166Z,1.90
2023-05-14T06:33:26.192Z,1.80
2023-05-14T06:34:27.112Z,2.10
2023-05-14T06:35:27.116Z,2.00
2023-05-14T06:36:26.108Z,2.10
2023-05-14T06:37:26.077Z,1.80
2023-05-14T06:38:26.086Z,1.90
2023-05-14T06:39:26.091Z,2.00
2023-05-14T06:40:26.234Z,1.90
2023-05-14T06:41:26.120Z,1.80
2023-05-14T06:42:26.092Z,1.90
2023-05-14T06:43:26.053Z,2.20
2023-05-14T06:44:26.033Z,1.90
2023-05-14T06:45:26.077Z,1.90
2023-05-14T06:46:26.035Z,1.90
2023-05-14T06:47:26.089Z,1.90
2023-05-14T06:48:26.068Z,1.90
2023-05-14T06:49:26.025Z,1.80
2023-05-14T06:50:26.036Z,2.00
2023-05-14T06:51:25.990Z,1.80
2023-05-14T06:52:26.121Z,1.90
2023-05-14T06:53:26.008Z,1.80
2023-05-14T06:54:26.028Z,2.00
2023-05-14T06:55:25.962Z,2.10
2023-05-14T06:56:25.964Z,1.80
2023-05-14T06:57:25.965Z,2.10
2023-05-14T06:58:25.931Z,1.90
2023-05-14T06:59:25.929Z,2.00
2023-05-14T07:00:26.204Z,1.80
2023-05-14T07:01:25.951Z,1.80
2023-05-14T07:02:26.477Z,1.90
2023-05-14T07:03:25.901Z,2.00
2023-05-14T07:04:25.921Z,1.90
2023-05-14T07:05:25.902Z,2.20
2023-05-14T07:06:26.906Z,2.00
2023-05-14T07:07:26.000Z,1.70
2023-05-14T07:08:25.873Z,1.80
2023-05-14T07:09:26.562Z,2.00
2023-05-14T07:10:25.994Z,1.70
2023-05-14T07:11:25.865Z,2.00
2023-05-14T07:12:25.846Z,1.80
2023-05-14T07:13:28.482Z,1.70
2023-05-14T07:14:26.825Z,1.50
2023-05-14T07:15:25.846Z,2.30
2023-05-14T07:16:25.836Z,1.90
2023-05-14T07:17:25.903Z,1.70
2023-05-14T07:18:25.836Z,1.60
2023-05-14T07:19:25.800Z,4.40
2023-05-14T07:20:26.006Z,3.00
2023-05-14T07:21:25.761Z,3.00
2023-05-14T07:22:25.775Z,1.80
2023-05-14T07:23:25.762Z,1.80
2023-05-14T07:24:25.753Z,2.20
2023-05-14T07:25:25.775Z,1.90
2023-05-14T07:26:26.471Z,1.60
2023-05-14T07:27:25.816Z,5.10
2023-05-14T07:28:25.725Z,1.80
2023-05-14T07:29:25.775Z,1.70
2023-05-14T07:30:25.903Z,1.50
2023-05-14T07:31:25.778Z,1.70
2023-05-14T07:32:25.718Z,1.70
2023-05-14T07:33:25.705Z,1.70
2023-05-14T07:34:25.744Z,1.70
2023-05-14T07:35:25.680Z,1.50
2023-05-14T07:36:25.663Z,1.30
2023-05-14T07:37:25.662Z,1.50
2023-05-14T07:38:25.689Z,2.70
2023-05-14T07:39:25.743Z,2.50
2023-05-14T07:40:25.904Z,1.60
2023-05-14T07:41:25.638Z,1.50
2023-05-14T07:42:35.815Z,1.40
2023-05-14T07:43:27.700Z,1.70
2023-05-14T07:44:25.621Z,1.60
2023-05-14T07:45:25.598Z,1.30
2023-05-14T07:46:25.613Z,1.60
2023-05-14T07:47:25.649Z,1.50
2023-05-14T07:48:25.720Z,1.30
2023-05-14T07:49:25.581Z,2.40
2023-05-14T07:50:25.917Z,1.60
2023-05-14T07:51:25.567Z,1.50
2023-05-14T07:52:25.597Z,1.40
2023-05-14T07:53:25.605Z,1.40
2023-05-14T07:54:25.539Z,1.50
2023-05-14T07:55:25.645Z,1.40
2023-05-14T07:56:25.536Z,1.50
2023-05-14T07:57:25.533Z,7.90
2023-05-14T07:58:25.503Z,3.00
2023-05-14T07:59:25.506Z,1.70
2023-05-14T08:00:25.737Z,1.30
2023-05-14T08:01:25.484Z,1.40
2023-05-14T08:02:25.578Z,2.50
2023-05-14T08:03:25.545Z,1.50
2023-05-14T08:04:26.514Z,1.50
2023-05-14T08:05:25.462Z,1.70
2023-05-14T08:06:25.468Z,1.60
2023-05-14T08:07:25.456Z,1.60
2023-05-14T08:08:25.449Z,1.40
2023-05-14T08:09:25.428Z,1.60
2023-05-14T08:10:27.470Z,1.70
2023-05-14T08:11:25.439Z,1.20
2023-05-14T08:12:25.410Z,1.50
2023-05-14T08:13:25.435Z,1.30
2023-05-14T08:14:25.401Z,7.50
2023-05-14T08:15:27.727Z,3.10
2023-05-14T08:16:25.470Z,1.40
2023-05-14T08:17:25.438Z,1.40
2023-05-14T08:18:25.401Z,1.40
2023-05-14T08:19:25.917Z,1.70
2023-05-14T08:20:25.611Z,1.50
2023-05-14T08:21:25.367Z,1.50
2023-05-14T08:22:25.367Z,1.40
2023-05-14T08:23:25.335Z,1.20
2023-05-14T08:24:25.327Z,1.20
2023-05-14T08:25:26.019Z,1.40
2023-05-14T08:26:25.358Z,1.40
2023-05-14T08:27:25.306Z,1.40
2023-05-14T08:28:25.395Z,1.40
2023-05-14T08:29:25.287Z,1.50
2023-05-14T08:30:25.610Z,1.30
2023-05-14T08:31:25.379Z,1.30
2023-05-14T08:32:25.279Z,1.30
2023-05-14T08:33:25.268Z,1.30
2023-05-14T08:34:25.259Z,1.30
2023-05-14T08:35:25.276Z,1.20
2023-05-14T08:36:25.284Z,1.20
2023-05-14T08:37:25.247Z,1.10
2023-05-14T08:38:25.282Z,1.20
2023-05-14T08:39:25.246Z,1.20
2023-05-14T08:40:25.508Z,1.10
2023-05-14T08:41:25.221Z,1.10
2023-05-14T08:42:25.220Z,1.10
2023-05-14T08:43:25.187Z,1.20
2023-05-14T08:44:25.208Z,1.40
2023-05-14T08:45:25.194Z,1.20
2023-05-14T08:46:25.182Z,1.20
2023-05-14T08:47:25.230Z,1.10
2023-05-14T08:48:25.245Z,1.20
2023-05-14T08:49:25.174Z,1.10
2023-05-14T08:50:25.488Z,1.10
2023-05-14T08:51:25.131Z,1.10
2023-05-14T08:52:25.127Z,1.10
2023-05-14T08:53:57.068Z,1.30
2023-05-14T08:54:25.108Z,1.20
2023-05-14T08:55:25.111Z,1.30
2023-05-14T08:56:57.495Z,1.40
2023-05-14T08:57:25.090Z,1.20
2023-05-14T08:58:25.155Z,1.20
2023-05-14T08:59:25.084Z,1.20
2023-05-14T09:00:25.235Z,1.20
2023-05-14T09:01:25.163Z,1.10
2023-05-14T09:02:25.155Z,1.10
2023-05-14T09:03:25.122Z,1.10
2023-05-14T09:04:25.057Z,1.20
2023-05-14T09:05:25.031Z,1.70
2023-05-14T09:06:25.033Z,1.50
2023-05-14T09:07:25.057Z,1.50
2023-05-14T09:08:25.014Z,1.20
2023-05-14T09:09:25.099Z,1.30
2023-05-14T09:10:25.263Z,1.30
2023-05-14T09:11:25.015Z,1.30
2023-05-14T09:12:25.009Z,1.30
2023-05-14T09:13:26.996Z,1.40
2023-05-14T09:14:25.028Z,2.30
2023-05-14T09:15:24.965Z,1.60
2023-05-14T09:16:25.033Z,1.30
2023-05-14T09:17:24.987Z,1.40
2023-05-14T09:18:24.981Z,1.70
2023-05-14T09:19:24.934Z,1.40
2023-05-14T09:20:25.304Z,1.40
2023-05-14T09:21:24.952Z,1.40
2023-05-14T09:22:24.911Z,1.30
2023-05-14T09:23:24.895Z,2.90
2023-05-14T09:24:24.898Z,2.60
2023-05-14T09:25:24.894Z,1.70
2023-05-14T09:26:24.914Z,1.90
2023-05-14T09:27:24.866Z,1.80
2023-05-14T09:28:25.890Z,1.40
2023-05-14T09:29:24.856Z,2.30
2023-05-14T09:30:25.069Z,2.60
2023-05-14T09:31:24.942Z,2.60
2023-05-14T09:32:24.867Z,2.10
2023-05-14T09:33:24.835Z,1.40
2023-05-14T09:34:24.849Z,1.20
2023-05-14T09:35:24.849Z,1.30
2023-05-14T09:36:24.836Z,1.40
2023-05-14T09:37:24.838Z,1.20
2023-05-14T09:38:24.799Z,1.30
2023-05-14T09:39:24.790Z,6.30
2023-05-14T09:40:25.244Z,1.40
2023-05-14T09:41:24.781Z,13.20
2023-05-14T09:42:24.766Z,1.50
2023-05-14T09:43:24.769Z,1.50
2023-05-14T09:44:24.778Z,1.40
2023-05-14T09:45:24.770Z,1.60
2023-05-14T09:46:24.862Z,1.50
2023-05-14T09:47:24.887Z,1.00
2023-05-14T09:48:24.820Z,7.20
2023-05-14T09:49:24.743Z,15.30
2023-05-14T09:50:24.918Z,2.80
2023-05-14T09:51:24.708Z,4.10
2023-05-14T09:52:24.706Z,2.00
2023-05-14T09:53:24.698Z,8.90
2023-05-14T09:54:24.721Z,2.60
2023-05-14T09:55:24.705Z,1.70
2023-05-14T09:56:24.672Z,1.70
2023-05-14T09:57:24.663Z,1.20
2023-05-14T09:58:24.653Z,1.10
2023-05-14T09:59:24.673Z,1.20
2023-05-14T10:00:24.904Z,1.40
2023-05-14T10:01:24.675Z,1.30
2023-05-14T10:02:24.690Z,1.20
2023-05-14T10:03:24.638Z,1.10
2023-05-14T10:04:24.679Z,1.10
2023-05-14T10:05:24.618Z,1.20
2023-05-14T10:06:24.610Z,1.40
2023-05-14T10:07:24.604Z,1.30
2023-05-14T10:08:24.619Z,1.20
2023-05-14T10:09:24.625Z,1.30
2023-05-14T10:10:24.803Z,1.70
2023-05-14T10:11:24.584Z,1.30
2023-05-14T10:12:24.564Z,2.00
2023-05-14T10:13:24.581Z,1.40
2023-05-14T10:14:24.590Z,1.10
2023-05-14T10:15:24.535Z,1.30
2023-05-14T10:16:24.586Z,2.10
2023-05-14T10:17:24.599Z,1.90
2023-05-14T10:18:24.550Z,1.80
2023-05-14T10:19:24.635Z,1.20
2023-05-14T10:20:24.836Z,1.60
2023-05-14T10:21:24.528Z,1.30
2023-05-14T10:22:24.524Z,1.50
2023-05-14T10:23:25.514Z,1.30
2023-05-14T10:24:24.480Z,1.20
2023-05-14T10:25:24.481Z,1.10
2023-05-14T10:26:24.483Z,1.60
2023-05-14T10:27:24.536Z,1.10
2023-05-14T10:28:24.453Z,1.30
2023-05-14T10:29:25.450Z,1.30
2023-05-14T10:30:24.759Z,1.80
2023-05-14T10:31:24.584Z,1.40
2023-05-14T10:32:24.470Z,16.80
2023-05-14T10:33:24.411Z,8.40
2023-05-14T10:34:24.428Z,11.80
2023-05-14T10:35:24.421Z,1.80
2023-05-14T10:36:24.416Z,3.50
2023-05-14T10:37:24.669Z,2.30
2023-05-14T10:38:24.546Z,2.90
2023-05-14T10:39:24.387Z,2.00
2023-05-14T10:40:24.625Z,2.20
2023-05-14T10:41:24.479Z,1.30
2023-05-14T10:42:24.360Z,1.40
2023-05-14T10:43:24.335Z,1.20
2023-05-14T10:44:24.359Z,1.10
2023-05-14T10:45:24.360Z,1.80
2023-05-14T10:46:24.375Z,1.20
2023-05-14T10:47:24.327Z,1.30
2023-05-14T10:48:24.384Z,1.30
2023-05-14T10:49:39.899Z,1.20
2023-05-14T10:50:26.449Z,1.00
2023-05-14T10:51:24.373Z,1.00
2023-05-14T10:52:24.298Z,1.10
2023-05-14T10:53:24.424Z,1.10
2023-05-14T10:54:24.296Z,1.20
2023-05-14T10:55:24.421Z,1.20
2023-05-14T10:56:24.290Z,1.10
2023-05-14T10:57:24.287Z,1.00
2023-05-14T10:58:24.236Z,1.10
2023-05-14T10:59:25.255Z,1.20
2023-05-14T11:00:24.476Z,1.20
2023-05-14T11:01:24.305Z,1.00
2023-05-14T11:02:24.224Z,0.90
2023-05-14T11:03:24.244Z,1.00
2023-05-14T11:04:24.217Z,1.00
2023-05-14T11:05:24.219Z,1.10
2023-05-14T11:06:25.100Z,1.10
2023-05-14T11:07:24.193Z,1.00
2023-05-14T11:08:27.018Z,1.30
2023-05-14T11:09:25.185Z,1.00
2023-05-14T11:10:24.377Z,1.00
2023-05-14T11:11:24.172Z,1.00
2023-05-14T11:12:24.268Z,1.10
2023-05-14T11:13:24.146Z,1.10
2023-05-14T11:14:24.156Z,1.00
2023-05-14T11:15:24.210Z,1.20
2023-05-14T11:16:24.358Z,1.00
2023-05-14T11:17:24.157Z,1.10
2023-05-14T11:18:24.114Z,1.10
2023-05-14T11:19:24.123Z,1.00
2023-05-14T11:20:24.408Z,1.00
2023-05-14T11:21:24.220Z,1.00
2023-05-14T11:22:24.072Z,1.00
2023-05-14T11:23:24.126Z,0.90
2023-05-14T11:24:24.111Z,1.10
2023-05-14T11:25:24.084Z,1.00
2023-05-14T11:26:24.187Z,1.10
2023-05-14T11:27:24.109Z,0.90
2023-05-14T11:28:24.049Z,0.80
2023-05-14T11:29:24.029Z,0.90
2023-05-14T11:30:24.364Z,1.00
2023-05-14T11:31:24.131Z,1.00
2023-05-14T11:32:24.473Z,1.00
2023-05-14T11:33:24.024Z,1.10
2023-05-14T11:34:24.004Z,1.10
2023-05-14T11:35:23.999Z,1.00
2023-05-14T11:36:24.035Z,0.90
2023-05-14T11:37:23.992Z,1.10
2023-05-14T11:38:24.001Z,0.80
2023-05-14T11:39:23.969Z,0.80
2023-05-14T11:40:24.123Z,0.90
2023-05-14T11:41:23.983Z,0.90
2023-05-14T11:42:23.972Z,0.90
2023-05-14T11:43:23.968Z,0.90
2023-05-14T11:44:23.960Z,0.90
2023-05-14T11:45:23.948Z,1.00
2023-05-14T11:46:24.016Z,0.90
2023-05-14T11:47:23.961Z,0.90
2023-05-14T11:48:24.017Z,1.00
2023-05-14T11:49:23.960Z,1.00
2023-05-14T11:50:24.183Z,1.00
2023-05-14T11:51:23.944Z,0.90
2023-05-14T11:52:23.875Z,0.90
2023-05-14T11:53:23.886Z,0.90
2023-05-14T11:54:23.857Z,0.90
2023-05-14T11:55:23.917Z,0.80
2023-05-14T11:56:23.855Z,0.90
2023-05-14T11:57:23.881Z,1.00
2023-05-14T11:58:23.873Z,1.00
2023-05-14T11:59:23.861Z,0.90
2023-05-14T12:00:24.104Z,0.70
2023-05-14T12:01:24.869Z,1.00
2023-05-14T12:02:23.938Z,0.90
2023-05-14T12:03:24.142Z,0.80
2023-05-14T12:04:23.926Z,0.80
2023-05-14T12:05:23.808Z,1.00
2023-05-14T12:06:23.791Z,0.80
2023-05-14T12:07:23.769Z,1.10
2023-05-14T12:08:23.774Z,0.90
2023-05-14T12:09:23.791Z,0.80
2023-05-14T12:10:24.055Z,0.90
2023-05-14T12:11:23.764Z,0.90
2023-05-14T12:12:23.740Z,0.90
2023-05-14T12:13:23.742Z,0.90
2023-05-14T12:14:23.744Z,0.90
2023-05-14T12:15:23.723Z,0.70
2023-05-14T12:16:23.750Z,0.80
2023-05-14T12:17:23.758Z,0.80
2023-05-14T12:18:25.194Z,0.80
2023-05-14T12:19:24.880Z,0.90
2023-05-14T12:20:23.882Z,0.80
2023-05-14T12:21:23.661Z,0.70
2023-05-14T12:22:23.660Z,0.90
2023-05-14T12:23:23.753Z,0.80
2023-05-14T12:24:23.652Z,0.80
2023-05-14T12:25:23.662Z,0.80
2023-05-14T12:26:23.633Z,0.80
2023-05-14T12:27:23.661Z,0.90
2023-05-14T12:28:23.657Z,0.90
2023-05-14T12:29:23.615Z,0.80
2023-05-14T12:30:23.606Z,0.90
2023-05-14T12:31:23.635Z,0.90
2023-05-14T12:32:23.674Z,0.90
2023-05-14T12:33:23.612Z,0.80
2023-05-14T12:34:23.582Z,0.80
2023-05-14T12:35:23.938Z,0.80
2023-05-14T12:36:23.582Z,0.90
2023-05-14T12:37:23.578Z,0.80
2023-05-14T12:38:23.561Z,0.90
2023-05-14T12:39:23.571Z,0.80
2023-05-14T12:40:23.787Z,0.90
2023-05-14T12:41:23.531Z,0.80
2023-05-14T12:42:23.556Z,0.80
2023-05-14T12:43:23.521Z,0.80
2023-05-14T12:44:23.547Z,1.00
2023-05-14T12:45:23.617Z,0.80
2023-05-14T12:46:23.525Z,0.80
2023-05-14T12:47:23.687Z,0.80
2023-05-14T12:48:23.489Z,0.70
2023-05-14T12:49:23.535Z,0.80
2023-05-14T12:50:23.644Z,0.90
2023-05-14T12:51:23.480Z,0.80
2023-05-14T12:52:36.783Z,0.80
2023-05-14T12:53:25.484Z,0.80
2023-05-14T12:54:23.514Z,0.90
2023-05-14T12:55:23.472Z,1.00
2023-05-14T12:56:23.454Z,0.80
2023-05-14T12:57:23.423Z,0.70
2023-05-14T12:58:23.445Z,0.90
2023-05-14T12:59:23.411Z,0.80
2023-05-14T13:00:23.641Z,0.80
2023-05-14T13:01:23.445Z,0.70
2023-05-14T13:02:23.403Z,0.70
2023-05-14T13:03:23.407Z,0.80
2023-05-14T13:04:23.423Z,0.90
2023-05-14T13:05:23.605Z,0.70
2023-05-14T13:06:23.405Z,0.80
2023-05-14T13:07:23.363Z,0.80
2023-05-14T13:08:23.349Z,0.70
2023-05-14T13:09:23.345Z,0.80
2023-05-14T13:10:23.357Z,0.80
2023-05-14T13:11:23.338Z,0.70
2023-05-14T13:12:23.330Z,0.70
2023-05-14T13:13:23.330Z,0.80
2023-05-14T13:14:23.339Z,0.90
2023-05-14T13:15:23.410Z,1.10
2023-05-14T13:16:23.324Z,2.10
2023-05-14T13:17:24.323Z,1.60
2023-05-14T13:18:23.293Z,1.20